sensor_id;sensor_type;location;lat;lon;timestamp;pressure;altitude;pressure_sealevel;temperature;humidity
10720;BME280;5411;58.386;15.560;2024-03-29T00:01:10;75613.38;;;-144.36;99.34
10720;BME280;5411;58.386;15.560;2024-03-29T00:03:36;75613.38;;;-144.36;99.13
10720;BME280;5411;58.386;15.560;2024-03-29T00:06:02;75613.38;;;-144.36;98.90
10720;BME280;5411;58.386;15.560;2024-03-29T00:08:29;75611.31;;;-144.36;99.11
10720;BME280;5411;58.386;15.560;2024-03-29T00:10:55;75613.38;;;-144.36;98.69
10720;BME280;5411;58.386;15.560;2024-03-29T00:13:21;75611.31;;;-144.36;98.17
10720;BME280;5411;58.386;15.560;2024-03-29T00:15:47;75605.22;;;-144.36;97.77
10720;BME280;5411;58.386;15.560;2024-03-29T00:18:13;75609.28;;;-144.36;97.29
10720;BME280;5411;58.386;15.560;2024-03-29T00:20:39;75607.25;;;-144.36;96.80
10720;BME280;5411;58.386;15.560;2024-03-29T00:23:05;75615.41;;;-144.36;96.56
10720;BME280;5411;58.386;15.560;2024-03-29T00:25:31;75617.44;;;-144.36;95.87
10720;BME280;5411;58.386;15.560;2024-03-29T00:27:57;75613.38;;;-144.36;95.28
10720;BME280;5411;58.386;15.560;2024-03-29T00:30:23;75617.44;;;-144.36;94.85
10720;BME280;5411;58.386;15.560;2024-03-29T00:32:49;75613.38;;;-144.36;94.75
10720;BME280;5411;58.386;15.560;2024-03-29T00:35:18;75617.44;;;-144.36;94.22
10720;BME280;5411;58.386;15.560;2024-03-29T00:37:44;75617.44;;;-144.36;93.86
10720;BME280;5411;58.386;15.560;2024-03-29T00:40:10;75607.25;;;-144.36;93.68
10720;BME280;5411;58.386;15.560;2024-03-29T00:42:36;75611.31;;;-144.36;93.21
10720;BME280;5411;58.386;15.560;2024-03-29T00:45:03;75617.44;;;-144.36;92.87
10720;BME280;5411;58.386;15.560;2024-03-29T00:47:29;75615.41;;;-144.36;92.66
10720;BME280;5411;58.386;15.560;2024-03-29T00:49:55;75615.41;;;-144.36;92.50
10720;BME280;5411;58.386;15.560;2024-03-29T00:52:21;75615.41;;;-144.36;92.06
10720;BME280;5411;58.386;15.560;2024-03-29T00:54:47;75621.53;;;-144.36;91.80
10720;BME280;5411;58.386;15.560;2024-03-29T00:57:13;75619.50;;;-144.36;91.47
10720;BME280;5411;58.386;15.560;2024-03-29T00:59:40;75621.53;;;-144.36;91.37
10720;BME280;5411;58.386;15.560;2024-03-29T01:02:06;75623.56;;;-144.36;91.17
10720;BME280;5411;58.386;15.560;2024-03-29T01:04:32;75631.72;;;-144.36;90.72
10720;BME280;5411;58.386;15.560;2024-03-29T01:06:58;75631.72;;;-144.36;90.23
10720;BME280;5411;58.386;15.560;2024-03-29T01:09:26;75635.81;;;-144.36;89.83
10720;BME280;5411;58.386;15.560;2024-03-29T01:11:52;75631.72;;;-144.36;89.61
10720;BME280;5411;58.386;15.560;2024-03-29T01:14:18;75629.69;;;-144.36;88.80
10720;BME280;5411;58.386;15.560;2024-03-29T01:16:44;75641.94;;;-144.36;88.82
10720;BME280;5411;58.386;15.560;2024-03-29T01:19:10;75641.94;;;-144.36;88.73
10720;BME280;5411;58.386;15.560;2024-03-29T01:21:36;75652.13;;;-144.36;87.75
10720;BME280;5411;58.386;15.560;2024-03-29T01:24:03;75654.16;;;-144.36;87.55
10720;BME280;5411;58.386;15.560;2024-03-29T01:26:29;75654.16;;;-144.36;87.32
10720;BME280;5411;58.386;15.560;2024-03-29T01:28:55;75658.25;;;-144.36;87.24
10720;BME280;5411;58.386;15.560;2024-03-29T01:31:22;75660.28;;;-144.36;86.83
10720;BME280;5411;58.386;15.560;2024-03-29T01:33:49;75658.25;;;-144.36;86.88
10720;BME280;5411;58.386;15.560;2024-03-29T01:36:16;75670.47;;;-144.36;86.15
10720;BME280;5411;58.386;15.560;2024-03-29T01:38:45;75668.44;;;-144.36;86.30
10720;BME280;5411;58.386;15.560;2024-03-29T01:41:11;75676.59;;;-144.36;85.78
10720;BME280;5411;58.386;15.560;2024-03-29T01:43:38;75682.72;;;-144.36;85.68
10720;BME280;5411;58.386;15.560;2024-03-29T01:46:05;75688.84;;;-144.36;85.68
10720;BME280;5411;58.386;15.560;2024-03-29T01:48:34;75688.84;;;-144.36;85.49
10720;BME280;5411;58.386;15.560;2024-03-29T01:51:01;75688.84;;;-144.36;85.69
10720;BME280;5411;58.386;15.560;2024-03-29T01:53:29;75686.81;;;-144.36;85.40
10720;BME280;5411;58.386;15.560;2024-03-29T01:55:57;75684.75;;;-144.36;85.13
10720;BME280;5411;58.386;15.560;2024-03-29T01:58:25;75692.91;;;-144.36;84.85
10720;BME280;5411;58.386;15.560;2024-03-29T02:00:54;75697.00;;;-144.36;84.69
10720;BME280;5411;58.386;15.560;2024-03-29T02:03:21;75703.13;;;-144.36;84.64
10720;BME280;5411;58.386;15.560;2024-03-29T02:05:49;75711.28;;;-144.36;84.87
10720;BME280;5411;58.386;15.560;2024-03-29T02:08:18;75711.28;;;-144.36;84.62
10720;BME280;5411;58.386;15.560;2024-03-29T02:10:49;75715.38;;;-144.36;84.49
10720;BME280;5411;58.386;15.560;2024-03-29T02:13:17;75717.41;;;-144.36;84.27
10720;BME280;5411;58.386;15.560;2024-03-29T02:15:44;75721.47;;;-144.36;84.22
10720;BME280;5411;58.386;15.560;2024-03-29T02:18:11;75719.44;;;-144.36;84.08
10720;BME280;5411;58.386;15.560;2024-03-29T02:20:38;75721.47;;;-144.36;83.96
10720;BME280;5411;58.386;15.560;2024-03-29T02:23:27;75725.56;;;-144.36;84.04
10720;BME280;5411;58.386;15.560;2024-03-29T02:25:55;75733.72;;;-144.36;84.08
10720;BME280;5411;58.386;15.560;2024-03-29T02:28:23;75735.75;;;-144.36;84.08
10720;BME280;5411;58.386;15.560;2024-03-29T02:30:50;75743.91;;;-144.36;84.46
10720;BME280;5411;58.386;15.560;2024-03-29T02:33:17;75750.03;;;-144.36;84.26
10720;BME280;5411;58.386;15.560;2024-03-29T02:35:44;75762.28;;;-144.36;84.95
10720;BME280;5411;58.386;15.560;2024-03-29T02:38:11;75758.19;;;-144.36;84.92
10720;BME280;5411;58.386;15.560;2024-03-29T02:40:38;75768.41;;;-144.36;85.08
10720;BME280;5411;58.386;15.560;2024-03-29T02:43:05;75772.47;;;-144.36;85.03
10720;BME280;5411;58.386;15.560;2024-03-29T02:45:32;75776.56;;;-144.36;85.28
10720;BME280;5411;58.386;15.560;2024-03-29T02:48:00;75778.59;;;-144.36;85.53
10720;BME280;5411;58.386;15.560;2024-03-29T02:50:27;75780.63;;;-144.36;85.86
10720;BME280;5411;58.386;15.560;2024-03-29T02:52:53;75776.56;;;-144.36;85.33
10720;BME280;5411;58.386;15.560;2024-03-29T02:55:20;75786.75;;;-144.36;85.63
10720;BME280;5411;58.386;15.560;2024-03-29T02:57:46;75788.81;;;-144.36;85.63
10720;BME280;5411;58.386;15.560;2024-03-29T03:00:14;75799.00;;;-144.36;85.68
10720;BME280;5411;58.386;15.560;2024-03-29T03:02:40;75792.88;;;-144.36;85.67
10720;BME280;5411;58.386;15.560;2024-03-29T03:05:08;75805.13;;;-144.36;85.83
10720;BME280;5411;58.386;15.560;2024-03-29T03:07:35;75809.19;;;-144.36;85.83
10720;BME280;5411;58.386;15.560;2024-03-29T03:10:19;75817.34;;;-144.36;85.49
10720;BME280;5411;58.386;15.560;2024-03-29T03:13:12;75817.34;;;-144.36;85.61
10720;BME280;5411;58.386;15.560;2024-03-29T03:15:39;75821.44;;;-144.36;85.52
10720;BME280;5411;58.386;15.560;2024-03-29T03:18:05;75819.41;;;-144.36;85.80
10720;BME280;5411;58.386;15.560;2024-03-29T03:20:32;75823.47;;;-144.36;85.75
10720;BME280;5411;58.386;15.560;2024-03-29T03:23:02;75829.59;;;-144.36;85.79
10720;BME280;5411;58.386;15.560;2024-03-29T03:25:29;75827.56;;;-144.36;85.81
10720;BME280;5411;58.386;15.560;2024-03-29T03:27:55;75825.53;;;-144.36;85.90
10720;BME280;5411;58.386;15.560;2024-03-29T03:30:22;75825.53;;;-144.36;85.89
10720;BME280;5411;58.386;15.560;2024-03-29T03:32:48;75825.53;;;-144.36;85.92
10720;BME280;5411;58.386;15.560;2024-03-29T03:35:15;75819.41;;;-144.36;85.95
10720;BME280;5411;58.386;15.560;2024-03-29T03:37:50;75831.63;;;-144.36;85.97
10720;BME280;5411;58.386;15.560;2024-03-29T03:40:24;75829.59;;;-144.36;86.44
10720;BME280;5411;58.386;15.560;2024-03-29T03:42:50;75829.59;;;-144.36;86.61
10720;BME280;5411;58.386;15.560;2024-03-29T03:45:17;75835.72;;;-144.36;86.17
10720;BME280;5411;58.386;15.560;2024-03-29T03:47:43;75843.88;;;-144.36;86.44
10720;BME280;5411;58.386;15.560;2024-03-29T03:50:10;75845.91;;;-144.36;86.54
10720;BME280;5411;58.386;15.560;2024-03-29T03:52:36;75852.03;;;-144.36;86.35
10720;BME280;5411;58.386;15.560;2024-03-29T03:55:03;75850.00;;;-144.36;86.28
10720;BME280;5411;58.386;15.560;2024-03-29T03:57:29;75852.03;;;-144.36;86.35
10720;BME280;5411;58.386;15.560;2024-03-29T03:59:56;75860.19;;;-144.36;86.01
10720;BME280;5411;58.386;15.560;2024-03-29T04:02:22;75864.28;;;-144.36;86.34
10720;BME280;5411;58.386;15.560;2024-03-29T04:04:49;75856.13;;;-144.36;85.93
10720;BME280;5411;58.386;15.560;2024-03-29T04:07:15;75856.13;;;-144.36;85.96
10720;BME280;5411;58.386;15.560;2024-03-29T04:09:42;75860.19;;;-144.36;85.84
10720;BME280;5411;58.386;15.560;2024-03-29T04:12:09;75860.19;;;-144.36;85.95
10720;BME280;5411;58.386;15.560;2024-03-29T04:14:37;75872.44;;;-144.36;85.40
10720;BME280;5411;58.386;15.560;2024-03-29T04:17:03;75868.34;;;-144.36;85.48
10720;BME280;5411;58.386;15.560;2024-03-29T04:19:30;75868.34;;;-144.36;85.15
10720;BME280;5411;58.386;15.560;2024-03-29T04:21:57;75868.34;;;-144.36;84.87
10720;BME280;5411;58.386;15.560;2024-03-29T04:24:23;75860.19;;;-144.36;84.82
10720;BME280;5411;58.386;15.560;2024-03-29T04:26:53;75864.28;;;-144.36;84.71
10720;BME280;5411;58.386;15.560;2024-03-29T04:29:19;75868.34;;;-144.36;84.62
10720;BME280;5411;58.386;15.560;2024-03-29T04:31:46;75866.31;;;-144.36;84.48
10720;BME280;5411;58.386;15.560;2024-03-29T04:34:12;75860.19;;;-144.36;84.47
10720;BME280;5411;58.386;15.560;2024-03-29T04:36:39;75864.28;;;-144.36;84.37
10720;BME280;5411;58.386;15.560;2024-03-29T04:39:06;75864.28;;;-144.36;83.92
10720;BME280;5411;58.386;15.560;2024-03-29T04:41:33;75862.25;;;-144.36;83.72
10720;BME280;5411;58.386;15.560;2024-03-29T04:44:01;75870.41;;;-144.36;83.69
10720;BME280;5411;58.386;15.560;2024-03-29T04:46:31;75864.28;;;-144.36;83.42
10720;BME280;5411;58.386;15.560;2024-03-29T04:48:58;75868.34;;;-144.36;83.04
10720;BME280;5411;58.386;15.560;2024-03-29T04:51:25;75866.31;;;-144.36;82.89
10720;BME280;5411;58.386;15.560;2024-03-29T04:53:52;75864.28;;;-144.36;82.84
10720;BME280;5411;58.386;15.560;2024-03-29T04:56:19;75864.28;;;-144.36;83.03
10720;BME280;5411;58.386;15.560;2024-03-29T04:58:46;75860.19;;;-144.36;82.71
10720;BME280;5411;58.386;15.560;2024-03-29T05:01:13;75862.25;;;-144.36;83.10
10720;BME280;5411;58.386;15.560;2024-03-29T05:03:43;75866.31;;;-144.36;82.91
10720;BME280;5411;58.386;15.560;2024-03-29T05:06:10;75868.34;;;-144.36;82.82
10720;BME280;5411;58.386;15.560;2024-03-29T05:08:37;75862.25;;;-144.36;82.59
10720;BME280;5411;58.386;15.560;2024-03-29T05:11:04;75864.28;;;-144.36;82.56
10720;BME280;5411;58.386;15.560;2024-03-29T05:13:33;75866.31;;;-144.36;82.64
10720;BME280;5411;58.386;15.560;2024-03-29T05:16:00;75870.41;;;-144.36;82.63
10720;BME280;5411;58.386;15.560;2024-03-29T05:18:27;75862.25;;;-144.36;82.82
10720;BME280;5411;58.386;15.560;2024-03-29T05:20:54;75864.28;;;-144.36;82.98
10720;BME280;5411;58.386;15.560;2024-03-29T05:23:21;75860.19;;;-144.36;82.60
10720;BME280;5411;58.386;15.560;2024-03-29T05:25:48;75858.16;;;-144.36;82.52
10720;BME280;5411;58.386;15.560;2024-03-29T05:28:17;75858.16;;;-144.36;82.49
10720;BME280;5411;58.386;15.560;2024-03-29T05:30:43;75858.16;;;-144.36;82.71
10720;BME280;5411;58.386;15.560;2024-03-29T05:33:10;75850.00;;;-144.36;82.82
10720;BME280;5411;58.386;15.560;2024-03-29T05:35:37;75856.13;;;-144.36;82.93
10720;BME280;5411;58.386;15.560;2024-03-29T05:38:03;75850.00;;;-144.36;82.92
10720;BME280;5411;58.386;15.560;2024-03-29T05:40:30;75852.03;;;-144.36;82.83
10720;BME280;5411;58.386;15.560;2024-03-29T05:42:57;75852.03;;;-144.36;82.63
10720;BME280;5411;58.386;15.560;2024-03-29T05:45:29;75852.03;;;-144.36;82.82
10720;BME280;5411;58.386;15.560;2024-03-29T05:47:58;75852.03;;;-144.36;82.48
10720;BME280;5411;58.386;15.560;2024-03-29T05:50:25;75847.97;;;-144.36;82.63
10720;BME280;5411;58.386;15.560;2024-03-29T05:52:52;75852.03;;;-144.36;82.70
10720;BME280;5411;58.386;15.560;2024-03-29T05:55:20;75850.00;;;-144.36;82.56
10720;BME280;5411;58.386;15.560;2024-03-29T05:57:47;75850.00;;;-144.36;82.62
10720;BME280;5411;58.386;15.560;2024-03-29T06:00:14;75856.13;;;-144.36;82.80
10720;BME280;5411;58.386;15.560;2024-03-29T06:02:42;75856.13;;;-144.36;82.99
10720;BME280;5411;58.386;15.560;2024-03-29T06:05:14;75860.19;;;-144.36;82.82
10720;BME280;5411;58.386;15.560;2024-03-29T06:07:41;75856.13;;;-144.36;83.08
10720;BME280;5411;58.386;15.560;2024-03-29T06:10:08;75862.25;;;-144.36;82.97
10720;BME280;5411;58.386;15.560;2024-03-29T06:12:36;75864.28;;;-144.36;83.08
10720;BME280;5411;58.386;15.560;2024-03-29T06:15:05;75878.56;;;-144.36;82.83
10720;BME280;5411;58.386;15.560;2024-03-29T06:17:50;75870.41;;;-144.36;83.03
10720;BME280;5411;58.386;15.560;2024-03-29T06:20:17;75876.53;;;-144.36;82.98
10720;BME280;5411;58.386;15.560;2024-03-29T06:22:47;75866.31;;;-144.36;82.84
10720;BME280;5411;58.386;15.560;2024-03-29T06:25:15;75870.41;;;-144.36;82.95
10720;BME280;5411;58.386;15.560;2024-03-29T06:27:45;75870.41;;;-144.36;83.05
10720;BME280;5411;58.386;15.560;2024-03-29T06:30:16;75882.63;;;-144.36;83.29
10720;BME280;5411;58.386;15.560;2024-03-29T06:32:45;75884.69;;;-144.36;83.20
10720;BME280;5411;58.386;15.560;2024-03-29T06:35:12;75876.53;;;-144.36;83.07
10720;BME280;5411;58.386;15.560;2024-03-29T06:37:39;75878.56;;;-144.36;83.14
10720;BME280;5411;58.386;15.560;2024-03-29T06:40:08;75872.44;;;-144.36;82.70
10720;BME280;5411;58.386;15.560;2024-03-29T06:42:35;75874.47;;;-144.36;82.78
10720;BME280;5411;58.386;15.560;2024-03-29T06:45:02;75868.34;;;-144.36;82.61
10720;BME280;5411;58.386;15.560;2024-03-29T06:47:31;75862.25;;;-144.36;82.23
10720;BME280;5411;58.386;15.560;2024-03-29T06:49:58;75858.16;;;-144.36;82.19
10720;BME280;5411;58.386;15.560;2024-03-29T06:52:27;75852.03;;;-144.36;81.97
10720;BME280;5411;58.386;15.560;2024-03-29T06:54:55;75847.97;;;-144.36;81.30
10720;BME280;5411;58.386;15.560;2024-03-29T06:57:22;75833.69;;;-144.36;80.82
10720;BME280;5411;58.386;15.560;2024-03-29T06:59:51;75831.63;;;-144.36;81.19
10720;BME280;5411;58.386;15.560;2024-03-29T07:02:18;75827.56;;;-144.36;80.48
10720;BME280;5411;58.386;15.560;2024-03-29T07:04:45;75809.19;;;-144.36;80.25
10720;BME280;5411;58.386;15.560;2024-03-29T07:07:12;75792.88;;;-144.36;79.79
10720;BME280;5411;58.386;15.560;2024-03-29T07:09:39;75784.72;;;-144.36;78.56
10720;BME280;5411;58.386;15.560;2024-03-29T07:12:06;75778.59;;;-144.36;78.49
10720;BME280;5411;58.386;15.560;2024-03-29T07:14:33;75760.25;;;-144.36;77.47
10720;BME280;5411;58.386;15.560;2024-03-29T07:17:01;75745.97;;;-144.36;76.90
10720;BME280;5411;58.386;15.560;2024-03-29T07:19:28;75733.72;;;-144.36;77.13
10720;BME280;5411;58.386;15.560;2024-03-29T07:21:56;75713.31;;;-144.36;75.79
10720;BME280;5411;58.386;15.560;2024-03-29T07:24:23;75713.31;;;-144.36;74.89
10720;BME280;5411;58.386;15.560;2024-03-29T07:26:52;75699.03;;;-144.36;73.71
10720;BME280;5411;58.386;15.560;2024-03-29T07:29:19;75694.97;;;-144.36;72.84
10720;BME280;5411;58.386;15.560;2024-03-29T07:31:46;75688.84;;;-144.36;72.07
10720;BME280;5411;58.386;15.560;2024-03-29T07:34:13;75686.81;;;-144.36;71.04
10720;BME280;5411;58.386;15.560;2024-03-29T07:36:40;75684.75;;;-144.36;69.48
10720;BME280;5411;58.386;15.560;2024-03-29T07:39:07;75674.56;;;-144.36;69.28
10720;BME280;5411;58.386;15.560;2024-03-29T07:41:34;75672.53;;;-144.36;68.77
10720;BME280;5411;58.386;15.560;2024-03-29T07:44:01;75680.69;;;-144.36;68.31
10720;BME280;5411;58.386;15.560;2024-03-29T07:46:33;75686.81;;;-144.36;66.58
10720;BME280;5411;58.386;15.560;2024-03-29T07:49:01;75690.88;;;-144.36;66.13
10720;BME280;5411;58.386;15.560;2024-03-29T07:51:29;75682.72;;;-144.36;66.21
10720;BME280;5411;58.386;15.560;2024-03-29T07:53:58;75694.97;;;-144.36;65.35
10720;BME280;5411;58.386;15.560;2024-03-29T07:56:26;75701.09;;;-144.36;66.24
10720;BME280;5411;58.386;15.560;2024-03-29T07:58:53;75707.19;;;-144.36;65.29
10720;BME280;5411;58.386;15.560;2024-03-29T08:01:21;75703.13;;;-144.36;64.63
10720;BME280;5411;58.386;15.560;2024-03-29T08:03:53;75692.91;;;-144.36;65.84
10720;BME280;5411;58.386;15.560;2024-03-29T08:06:20;75688.84;;;-144.36;65.48
10720;BME280;5411;58.386;15.560;2024-03-29T08:08:49;75682.72;;;-144.36;65.74
10720;BME280;5411;58.386;15.560;2024-03-29T08:11:17;75666.41;;;-144.36;65.18
10720;BME280;5411;58.386;15.560;2024-03-29T08:13:44;75662.31;;;-144.36;65.51
10720;BME280;5411;58.386;15.560;2024-03-29T08:16:12;75662.31;;;-144.36;64.41
10720;BME280;5411;58.386;15.560;2024-03-29T08:18:42;75658.25;;;-144.36;63.73
10720;BME280;5411;58.386;15.560;2024-03-29T08:21:09;75660.28;;;-144.36;63.20
10720;BME280;5411;58.386;15.560;2024-03-29T08:23:39;75662.31;;;-144.36;63.28
10720;BME280;5411;58.386;15.560;2024-03-29T08:26:10;75666.41;;;-144.36;62.49
10720;BME280;5411;58.386;15.560;2024-03-29T08:28:37;75678.66;;;-144.36;62.83
10720;BME280;5411;58.386;15.560;2024-03-29T08:31:06;75686.81;;;-144.36;62.77
10720;BME280;5411;58.386;15.560;2024-03-29T08:33:35;75686.81;;;-144.36;63.76
10720;BME280;5411;58.386;15.560;2024-03-29T08:36:07;75694.97;;;-144.36;63.23
10720;BME280;5411;58.386;15.560;2024-03-29T08:38:35;75692.91;;;-144.36;63.58
10720;BME280;5411;58.386;15.560;2024-03-29T08:41:01;75686.81;;;-144.36;63.19
10720;BME280;5411;58.386;15.560;2024-03-29T08:43:29;75697.00;;;-144.36;61.95
10720;BME280;5411;58.386;15.560;2024-03-29T08:45:56;75690.88;;;-144.36;62.60
10720;BME280;5411;58.386;15.560;2024-03-29T08:48:23;75694.97;;;-144.36;62.64
10720;BME280;5411;58.386;15.560;2024-03-29T08:50:51;75694.97;;;-144.36;62.46
10720;BME280;5411;58.386;15.560;2024-03-29T08:53:18;75694.97;;;-144.36;62.46
10720;BME280;5411;58.386;15.560;2024-03-29T08:55:46;75692.91;;;-144.36;62.51
10720;BME280;5411;58.386;15.560;2024-03-29T08:58:14;75694.97;;;-144.36;62.61
10720;BME280;5411;58.386;15.560;2024-03-29T09:00:41;75682.72;;;-144.36;63.69
10720;BME280;5411;58.386;15.560;2024-03-29T09:03:08;75678.66;;;-144.36;61.79
10720;BME280;5411;58.386;15.560;2024-03-29T09:05:35;75674.56;;;-144.36;62.63
10720;BME280;5411;58.386;15.560;2024-03-29T09:08:02;75660.28;;;-144.36;62.16
10720;BME280;5411;58.386;15.560;2024-03-29T09:10:29;75652.13;;;-144.36;60.91
10720;BME280;5411;58.386;15.560;2024-03-29T09:12:57;75654.16;;;-144.36;61.04
10720;BME280;5411;58.386;15.560;2024-03-29T09:15:24;75635.81;;;-144.36;60.61
10720;BME280;5411;58.386;15.560;2024-03-29T09:17:51;75619.50;;;-144.36;60.38
10720;BME280;5411;58.386;15.560;2024-03-29T09:20:21;75607.25;;;-144.36;60.34
10720;BME280;5411;58.386;15.560;2024-03-29T09:22:51;75603.16;;;-144.36;60.67
10720;BME280;5411;58.386;15.560;2024-03-29T09:25:18;75588.88;;;-144.36;60.13
10720;BME280;5411;58.386;15.560;2024-03-29T09:27:45;75582.78;;;-144.36;59.67
10720;BME280;5411;58.386;15.560;2024-03-29T09:30:14;75570.53;;;-144.36;58.66
10720;BME280;5411;58.386;15.560;2024-03-29T09:32:41;75578.69;;;-144.36;58.69
10720;BME280;5411;58.386;15.560;2024-03-29T09:35:08;75582.78;;;-144.36;58.81
10720;BME280;5411;58.386;15.560;2024-03-29T09:37:35;75582.78;;;-144.36;58.53
10720;BME280;5411;58.386;15.560;2024-03-29T09:40:04;75603.16;;;-144.36;58.68
10720;BME280;5411;58.386;15.560;2024-03-29T09:42:34;75609.28;;;-144.36;58.62
10720;BME280;5411;58.386;15.560;2024-03-29T09:45:02;75601.13;;;-144.36;58.62
10720;BME280;5411;58.386;15.560;2024-03-29T09:47:30;75609.28;;;-144.36;58.70
10720;BME280;5411;58.386;15.560;2024-03-29T09:49:59;75615.41;;;-144.36;59.13
10720;BME280;5411;58.386;15.560;2024-03-29T09:52:29;75615.41;;;-144.36;59.17
10720;BME280;5411;58.386;15.560;2024-03-29T09:54:56;75607.25;;;-144.36;59.59
10720;BME280;5411;58.386;15.560;2024-03-29T09:57:23;75603.16;;;-144.36;58.62
10720;BME280;5411;58.386;15.560;2024-03-29T09:59:55;75597.06;;;-144.36;58.82
10720;BME280;5411;58.386;15.560;2024-03-29T10:02:25;75578.69;;;-144.36;58.44
10720;BME280;5411;58.386;15.560;2024-03-29T10:04:56;75582.78;;;-144.36;58.28
10720;BME280;5411;58.386;15.560;2024-03-29T10:07:24;75574.63;;;-144.36;57.87
10720;BME280;5411;58.386;15.560;2024-03-29T10:09:52;75574.63;;;-144.36;57.80
10720;BME280;5411;58.386;15.560;2024-03-29T10:12:20;75566.44;;;-144.36;58.37
10720;BME280;5411;58.386;15.560;2024-03-29T10:14:48;75552.16;;;-144.36;57.73
10720;BME280;5411;58.386;15.560;2024-03-29T10:17:18;75560.34;;;-144.36;56.62
10720;BME280;5411;58.386;15.560;2024-03-29T10:19:46;75578.69;;;-144.36;56.92
10720;BME280;5411;58.386;15.560;2024-03-29T10:22:13;75588.88;;;-144.36;57.52
10720;BME280;5411;58.386;15.560;2024-03-29T10:24:40;75595.00;;;-144.36;57.93
10720;BME280;5411;58.386;15.560;2024-03-29T10:27:07;75605.22;;;-144.36;57.93
10720;BME280;5411;58.386;15.560;2024-03-29T10:29:34;75617.44;;;-144.36;57.05
10720;BME280;5411;58.386;15.560;2024-03-29T10:32:01;75637.84;;;-144.36;57.53
10720;BME280;5411;58.386;15.560;2024-03-29T10:34:30;75656.22;;;-144.36;57.88
10720;BME280;5411;58.386;15.560;2024-03-29T10:37:01;75652.13;;;-144.36;57.42
10720;BME280;5411;58.386;15.560;2024-03-29T10:39:31;75656.22;;;-144.36;56.33
10720;BME280;5411;58.386;15.560;2024-03-29T10:41:59;75648.03;;;-144.36;55.43
10720;BME280;5411;58.386;15.560;2024-03-29T10:44:28;75623.56;;;-144.36;55.41
10720;BME280;5411;58.386;15.560;2024-03-29T10:46:58;75613.38;;;-144.36;55.10
10720;BME280;5411;58.386;15.560;2024-03-29T10:49:28;75582.78;;;-144.36;54.38
10720;BME280;5411;58.386;15.560;2024-03-29T10:51:57;75595.00;;;-144.36;53.94
10720;BME280;5411;58.386;15.560;2024-03-29T10:54:25;75588.88;;;-144.36;53.49
10720;BME280;5411;58.386;15.560;2024-03-29T10:57:00;75595.00;;;-144.36;53.63
10720;BME280;5411;58.386;15.560;2024-03-29T11:05:35;75578.69;;;-144.36;54.88
10720;BME280;5411;58.386;15.560;2024-03-29T11:08:06;75564.41;;;-144.36;54.23
10720;BME280;5411;58.386;15.560;2024-03-29T11:10:40;75550.13;;;-144.36;54.09
10720;BME280;5411;58.386;15.560;2024-03-29T11:16:04;75562.38;;;-144.36;53.64
10720;BME280;5411;58.386;15.560;2024-03-29T11:18:32;75570.53;;;-144.36;53.65
10720;BME280;5411;58.386;15.560;2024-03-29T11:21:00;75574.63;;;-144.36;54.03
10720;BME280;5411;58.386;15.560;2024-03-29T11:23:32;75582.78;;;-144.36;54.24
10720;BME280;5411;58.386;15.560;2024-03-29T11:25:59;75582.78;;;-144.36;54.44
10720;BME280;5411;58.386;15.560;2024-03-29T11:31:07;75541.97;;;-144.36;53.71
10720;BME280;5411;58.386;15.560;2024-03-29T11:33:44;75523.63;;;-144.36;53.58
10720;BME280;5411;58.386;15.560;2024-03-29T11:36:16;75521.56;;;-144.36;53.16
10720;BME280;5411;58.386;15.560;2024-03-29T11:38:50;75484.84;;;-144.36;52.82
10720;BME280;5411;58.386;15.560;2024-03-29T11:41:20;75478.75;;;-144.36;53.17
10720;BME280;5411;58.386;15.560;2024-03-29T11:43:53;75466.50;;;-144.36;52.41
10720;BME280;5411;58.386;15.560;2024-03-29T11:46:22;75470.59;;;-144.36;52.43
10720;BME280;5411;58.386;15.560;2024-03-29T11:48:50;75456.31;;;-144.36;52.33
10720;BME280;5411;58.386;15.560;2024-03-29T11:51:19;75429.78;;;-144.36;52.39
10720;BME280;5411;58.386;15.560;2024-03-29T11:53:48;75391.03;;;-144.36;52.29
10720;BME280;5411;58.386;15.560;2024-03-29T11:56:16;75368.59;;;-144.36;50.81
10720;BME280;5411;58.386;15.560;2024-03-29T11:58:43;75352.28;;;-144.36;50.99
10720;BME280;5411;58.386;15.560;2024-03-29T12:01:11;75356.34;;;-144.36;50.39
10720;BME280;5411;58.386;15.560;2024-03-29T12:03:41;75366.56;;;-144.36;49.87
10720;BME280;5411;58.386;15.560;2024-03-29T12:06:08;75376.75;;;-144.36;50.29
10720;BME280;5411;58.386;15.560;2024-03-29T12:08:39;75384.91;;;-144.36;50.46
10720;BME280;5411;58.386;15.560;2024-03-29T12:11:08;75397.16;;;-144.36;50.87
10720;BME280;5411;58.386;15.560;2024-03-29T12:13:35;75389.00;;;-144.36;50.39
10720;BME280;5411;58.386;15.560;2024-03-29T12:16:02;75393.06;;;-144.36;50.32
10720;BME280;5411;58.386;15.560;2024-03-29T12:18:30;75405.31;;;-144.36;49.69
10720;BME280;5411;58.386;15.560;2024-03-29T12:20:57;75415.50;;;-144.36;50.40
10720;BME280;5411;58.386;15.560;2024-03-29T12:23:24;75437.94;;;-144.36;50.35
10720;BME280;5411;58.386;15.560;2024-03-29T12:25:53;75439.97;;;-144.36;50.69
10720;BME280;5411;58.386;15.560;2024-03-29T12:28:22;75439.97;;;-144.36;50.89
10720;BME280;5411;58.386;15.560;2024-03-29T12:30:50;75433.88;;;-144.36;50.23
10720;BME280;5411;58.386;15.560;2024-03-29T12:33:18;75421.63;;;-144.36;50.48
10720;BME280;5411;58.386;15.560;2024-03-29T12:35:48;75415.50;;;-144.36;50.44
10720;BME280;5411;58.386;15.560;2024-03-29T12:38:18;75411.44;;;-144.36;50.27
10720;BME280;5411;58.386;15.560;2024-03-29T12:40:47;75397.16;;;-144.36;49.98
10720;BME280;5411;58.386;15.560;2024-03-29T12:43:19;75386.94;;;-144.36;49.91
10720;BME280;5411;58.386;15.560;2024-03-29T12:45:57;75368.59;;;-144.36;49.05
10720;BME280;5411;58.386;15.560;2024-03-29T12:48:26;75356.34;;;-144.36;48.75
10720;BME280;5411;58.386;15.560;2024-03-29T12:50:53;75327.78;;;-144.36;48.53
10720;BME280;5411;58.386;15.560;2024-03-29T12:53:20;75303.31;;;-144.36;47.45
10720;BME280;5411;58.386;15.560;2024-03-29T12:55:48;75315.56;;;-144.36;48.06